createdAt,value
2018-08-09T00:02:42.008Z,19.14
2018-08-09T00:05:40.064Z,19.27
2018-08-09T00:08:38.111Z,19.38
2018-08-09T00:11:35.271Z,19.40
2018-08-09T00:14:33.260Z,19.56
2018-08-09T00:17:31.344Z,19.49
2018-08-09T00:20:29.418Z,19.56
2018-08-09T00:23:27.531Z,19.47
2018-08-09T00:26:25.343Z,19.43
2018-08-09T00:29:23.328Z,19.14
2018-08-09T00:32:21.107Z,19.16
2018-08-09T00:35:19.087Z,19.01
2018-08-09T00:38:16.756Z,18.76
2018-08-09T00:41:14.722Z,18.89
2018-08-09T00:44:12.727Z,18.93
2018-08-09T00:47:09.809Z,18.91
2018-08-09T00:50:07.004Z,18.95
2018-08-09T00:53:04.241Z,18.82
2018-08-09T00:56:01.579Z,18.59
2018-08-09T00:58:59.724Z,18.57
2018-08-09T01:01:57.343Z,18.69
2018-08-09T01:04:54.343Z,18.78
2018-08-09T01:07:52.190Z,18.78
2018-08-09T01:10:49.665Z,18.58
2018-08-09T01:13:47.438Z,18.56
2018-08-09T01:16:45.583Z,18.57
2018-08-09T01:19:43.445Z,18.55
2018-08-09T01:22:41.383Z,18.52
2018-08-09T01:25:39.199Z,18.50
2018-08-09T01:28:37.264Z,18.39
2018-08-09T01:31:42.311Z,18.46
2018-08-09T01:34:40.507Z,18.38
2018-08-09T01:37:37.643Z,18.27
2018-08-09T01:40:34.833Z,18.18
2018-08-09T01:43:44.456Z,18.34
2018-08-09T01:46:42.427Z,18.34
2018-08-09T01:49:39.883Z,18.39
2018-08-09T01:52:36.950Z,18.35
2018-08-09T01:55:34.297Z,18.27
2018-08-09T01:58:32.386Z,18.16
2018-08-09T02:01:30.475Z,17.95
2018-08-09T02:04:28.048Z,17.85
2018-08-09T02:07:25.204Z,17.93
2018-08-09T02:10:22.854Z,17.97
2018-08-09T02:13:20.439Z,17.91
2018-08-09T02:16:17.884Z,17.83
2018-08-09T02:19:15.920Z,17.70
2018-08-09T02:22:13.936Z,17.77
2018-08-09T02:25:12.028Z,17.93
2018-08-09T02:28:09.885Z,18.02
2018-08-09T02:31:07.880Z,18.10
2018-08-09T02:34:05.938Z,18.21
2018-08-09T02:37:03.698Z,18.29
2018-08-09T02:40:01.699Z,18.23
2018-08-09T02:42:59.776Z,18.05
2018-08-09T02:45:57.183Z,18.00
2018-08-09T02:48:55.071Z,17.78
2018-08-09T02:51:52.136Z,17.71
2018-08-09T02:54:49.792Z,17.56
2018-08-09T02:57:47.894Z,17.51
2018-08-09T03:00:45.752Z,17.55
2018-08-09T03:03:43.843Z,17.67
2018-08-09T03:06:40.993Z,17.80
2018-08-09T03:09:38.142Z,17.88
2018-08-09T03:12:35.308Z,17.88
2018-08-09T03:15:32.968Z,17.88
2018-08-09T03:18:30.663Z,17.82
2018-08-09T03:21:28.210Z,17.55
2018-08-09T03:24:26.019Z,17.56
2018-08-09T03:27:23.742Z,17.60
2018-08-09T03:30:21.515Z,17.51
2018-08-09T03:33:18.851Z,17.33
2018-08-09T03:36:16.223Z,17.33
2018-08-09T03:39:14.219Z,17.39
2018-08-09T03:42:12.179Z,17.36
2018-08-09T03:45:10.253Z,17.26
2018-08-09T03:48:08.363Z,17.17
2018-08-09T03:51:05.687Z,17.18
2018-08-09T03:54:03.678Z,17.28
2018-08-09T03:57:01.636Z,17.36
2018-08-09T03:59:58.707Z,17.30
2018-08-09T04:02:56.784Z,17.28
2018-08-09T04:05:54.516Z,17.18
2018-08-09T04:08:51.699Z,17.19
2018-08-09T04:11:49.784Z,17.00
2018-08-09T04:14:48.049Z,17.01
2018-08-09T04:17:46.169Z,16.99
2018-08-09T04:20:43.510Z,17.11
2018-08-09T04:23:40.743Z,17.24
2018-08-09T04:26:38.921Z,17.46
2018-08-09T04:29:36.785Z,17.50
2018-08-09T04:32:34.363Z,17.50
2018-08-09T04:35:32.311Z,17.78
2018-08-09T04:38:29.898Z,17.92
2018-08-09T04:41:27.342Z,18.19
2018-08-09T04:44:25.044Z,18.66
2018-08-09T04:47:23.218Z,19.02
2018-08-09T04:50:21.059Z,19.38
2018-08-09T04:53:18.988Z,19.93
2018-08-09T04:56:16.936Z,20.26
2018-08-09T04:59:14.791Z,20.28
2018-08-09T05:02:12.743Z,20.49
2018-08-09T05:05:10.042Z,20.78
2018-08-09T05:08:08.059Z,20.68
2018-08-09T05:11:06.115Z,21.00
2018-08-09T05:14:04.088Z,22.03
2018-08-09T05:17:01.906Z,22.13
2018-08-09T05:19:59.884Z,22.81
2018-08-09T05:22:57.861Z,23.24
2018-08-09T05:25:55.781Z,23.80
2018-08-09T05:28:53.679Z,24.15
2018-08-09T05:31:50.779Z,24.19
2018-08-09T05:34:47.927Z,24.50
2018-08-09T05:37:45.072Z,24.80
2018-08-09T05:40:42.894Z,24.41
2018-08-09T05:43:40.931Z,24.19
2018-08-09T05:46:38.722Z,24.68
2018-08-09T05:49:36.657Z,25.35
2018-08-09T05:52:34.607Z,26.08
2018-08-09T05:55:32.510Z,24.95
2018-08-09T05:58:30.560Z,24.97
2018-08-09T06:01:28.364Z,25.88
2018-08-09T06:04:25.557Z,26.13
2018-08-09T06:07:23.700Z,26.25
2018-08-09T06:10:21.867Z,26.67
2018-08-09T06:13:19.208Z,26.54
2018-08-09T06:16:17.456Z,27.08
2018-08-09T06:19:14.795Z,27.80
2018-08-09T06:22:12.835Z,26.46
2018-08-09T06:25:09.873Z,26.66
2018-08-09T06:28:07.905Z,25.73
2018-08-09T06:31:05.755Z,24.20
2018-08-09T06:34:03.622Z,24.91
2018-08-09T06:37:00.897Z,25.12
2018-08-09T06:39:58.841Z,25.28
2018-08-09T06:42:56.336Z,25.22
2018-08-09T06:45:54.394Z,25.47
2018-08-09T06:48:52.282Z,26.74
2018-08-09T06:51:50.218Z,26.30
2018-08-09T06:54:48.123Z,26.55
2018-08-09T06:57:46.061Z,26.22
2018-08-09T07:00:43.890Z,25.11
2018-08-09T07:03:41.835Z,23.87
2018-08-09T07:06:39.703Z,23.65
2018-08-09T07:09:36.967Z,23.73
2018-08-09T07:12:34.271Z,23.76
2018-08-09T07:15:32.136Z,23.72
2018-08-09T07:18:30.211Z,23.25
2018-08-09T07:21:28.308Z,23.35
2018-08-09T07:24:26.055Z,23.59
2018-08-09T07:27:23.806Z,23.92
2018-08-09T07:30:22.875Z,23.91
2018-08-09T07:33:20.994Z,23.59
2018-08-09T07:36:19.050Z,23.15
2018-08-09T07:39:17.259Z,22.88
2018-08-09T07:42:15.069Z,22.77
2018-08-09T07:45:13.091Z,22.66
2018-08-09T07:48:10.479Z,22.18
2018-08-09T07:51:08.528Z,21.75
2018-08-09T07:54:06.555Z,21.50
2018-08-09T07:57:04.474Z,20.96
2018-08-09T08:00:02.133Z,20.84
2018-08-09T08:02:59.983Z,20.73
2018-08-09T08:05:57.592Z,20.76
2018-08-09T08:08:54.807Z,20.67
2018-08-09T08:11:52.182Z,20.52
2018-08-09T08:14:49.646Z,20.35
2018-08-09T08:17:47.639Z,20.20
2018-08-09T08:20:45.600Z,20.03
2018-08-09T08:23:43.499Z,19.99
2018-08-09T08:26:41.615Z,19.87
2018-08-09T08:29:39.663Z,19.71
2018-08-09T08:32:37.780Z,19.81
2018-08-09T08:35:35.896Z,19.80
2018-08-09T08:38:34.016Z,19.77
2018-08-09T08:41:32.203Z,19.79
2018-08-09T08:44:29.402Z,19.95
2018-08-09T08:47:26.991Z,20.04
2018-08-09T08:50:24.839Z,20.03
2018-08-09T08:53:22.579Z,19.96
2018-08-09T08:56:20.590Z,20.01
2018-08-09T08:59:18.611Z,19.85
2018-08-09T09:02:16.216Z,19.68
2018-08-09T09:05:14.378Z,19.61
2018-08-09T09:08:11.991Z,19.47
2018-08-09T09:11:10.029Z,19.33
2018-08-09T09:14:08.079Z,19.29
2018-08-09T09:17:06.000Z,19.33
2018-08-09T09:20:03.925Z,19.56
2018-08-09T09:23:01.921Z,19.97
2018-08-09T09:26:00.113Z,20.59
2018-08-09T09:28:58.350Z,20.98
2018-08-09T09:31:55.548Z,21.24
2018-08-09T09:34:53.702Z,21.17
2018-08-09T09:37:52.579Z,21.08
2018-08-09T09:40:49.548Z,21.28
2018-08-09T09:43:46.400Z,21.61
2018-08-09T09:46:44.412Z,22.10
2018-08-09T09:49:42.262Z,22.58
2018-08-09T09:52:40.146Z,23.08
2018-08-09T09:55:38.218Z,24.22
2018-08-09T09:58:35.947Z,24.66
2018-08-09T10:01:39.495Z,24.51
2018-08-09T10:04:37.557Z,25.39
2018-08-09T10:07:35.329Z,25.53
2018-08-09T10:10:32.622Z,26.06
2018-08-09T10:13:30.671Z,25.95
2018-08-09T10:16:28.650Z,24.89
2018-08-09T10:19:26.316Z,24.96
2018-08-09T10:22:24.484Z,24.71
2018-08-09T10:25:21.571Z,24.15
2018-08-09T10:28:19.582Z,24.66
2018-08-09T10:31:17.682Z,24.53
2018-08-09T10:34:15.612Z,24.32
2018-08-09T10:37:12.599Z,24.38
2018-08-09T10:40:10.380Z,24.52
2018-08-09T10:43:08.228Z,24.75
2018-08-09T10:46:06.096Z,24.72
2018-08-09T10:49:04.128Z,24.76
2018-08-09T10:52:02.044Z,25.36
2018-08-09T10:54:59.947Z,26.56
2018-08-09T10:57:56.914Z,26.24
2018-08-09T11:00:54.130Z,26.27
2018-08-09T11:03:51.418Z,26.23
2018-08-09T11:06:49.179Z,26.72
2018-08-09T11:09:46.426Z,27.07
2018-08-09T11:12:44.005Z,27.39
2018-08-09T11:15:42.091Z,27.62
2018-08-09T11:18:39.406Z,28.11
2018-08-09T11:21:36.572Z,27.92
2018-08-09T11:24:34.467Z,27.59
2018-08-09T11:27:32.306Z,27.15
2018-08-09T11:30:30.211Z,27.71
2018-08-09T11:33:28.471Z,27.72
2018-08-09T11:36:25.573Z,28.11
2018-08-09T11:39:23.129Z,27.81
2018-08-09T11:42:20.510Z,27.40
2018-08-09T11:45:17.684Z,27.11
2018-08-09T11:48:15.622Z,27.21
2018-08-09T11:51:13.354Z,26.92
2018-08-09T11:54:11.532Z,27.18
2018-08-09T11:57:08.559Z,27.36
2018-08-09T12:00:06.247Z,27.35
2018-08-09T12:03:03.222Z,27.45
2018-08-09T12:06:01.012Z,27.49
2018-08-09T12:08:58.751Z,27.83
2018-08-09T12:11:56.671Z,27.83
2018-08-09T12:14:54.917Z,27.65
2018-08-09T12:17:52.571Z,27.49
2018-08-09T12:20:50.763Z,27.64
2018-08-09T12:23:48.810Z,27.80
2018-08-09T12:26:46.168Z,27.96
2018-08-09T12:29:43.517Z,28.29
2018-08-09T12:32:40.896Z,28.27
2018-08-09T12:35:37.971Z,28.74
2018-08-09T12:38:36.267Z,28.94
2018-08-09T12:41:34.007Z,28.48
2018-08-09T12:44:32.024Z,28.53
2018-08-09T12:47:29.327Z,28.71
2018-08-09T12:50:28.175Z,28.63
2018-08-09T12:53:25.067Z,28.65
2018-08-09T12:56:22.292Z,28.93
2018-08-09T12:59:19.311Z,29.07
2018-08-09T13:02:16.521Z,29.06
2018-08-09T13:05:15.084Z,29.15
2018-08-09T13:08:13.033Z,29.07
2018-08-09T13:11:11.305Z,29.08
2018-08-09T13:14:09.272Z,29.30
2018-08-09T13:17:07.332Z,29.35
2018-08-09T13:20:04.495Z,29.64
2018-08-09T13:23:02.676Z,29.57
2018-08-09T13:26:00.431Z,29.27
2018-08-09T13:28:58.409Z,29.21
2018-08-09T13:31:55.494Z,29.35
2018-08-09T13:34:53.328Z,29.45
2018-08-09T13:37:51.286Z,29.61
2018-08-09T13:40:48.359Z,29.70
2018-08-09T13:43:46.527Z,29.85
2018-08-09T13:46:43.526Z,29.85
2018-08-09T13:49:41.654Z,30.10
2018-08-09T13:52:38.728Z,30.17
2018-08-09T13:55:36.740Z,30.01
2018-08-09T13:58:42.787Z,30.07
2018-08-09T14:01:40.871Z,30.11
2018-08-09T14:04:38.716Z,30.10
2018-08-09T14:07:35.788Z,30.16
2018-08-09T14:10:33.685Z,30.19
2018-08-09T14:13:30.816Z,30.35
2018-08-09T14:16:28.603Z,30.68
2018-08-09T14:19:26.496Z,30.84
2018-08-09T14:22:23.406Z,31.15
2018-08-09T14:25:21.238Z,31.49
2018-08-09T14:28:19.243Z,31.57
2018-08-09T14:31:16.987Z,31.47
2018-08-09T14:34:14.901Z,31.46
2018-08-09T14:37:13.156Z,31.28
2018-08-09T14:40:10.315Z,31.02
2018-08-09T14:43:08.055Z,30.82
2018-08-09T14:46:06.071Z,30.69
2018-08-09T14:49:04.224Z,30.70
2018-08-09T14:52:02.292Z,30.73
2018-08-09T14:55:00.193Z,30.70
2018-08-09T14:57:57.343Z,30.71
2018-08-09T15:00:54.388Z,28.45
2018-08-09T15:03:51.958Z,26.26
2018-08-09T15:06:49.128Z,25.39
2018-08-09T15:09:47.196Z,23.35
2018-08-09T15:12:44.431Z,22.63
2018-08-09T15:15:42.425Z,22.14
2018-08-09T15:18:40.629Z,21.91
2018-08-09T15:21:37.922Z,21.77
2018-08-09T15:24:35.300Z,21.73
2018-08-09T15:27:33.524Z,21.62
2018-08-09T15:30:39.327Z,21.53
2018-08-09T15:33:36.535Z,21.29
2018-08-09T15:36:34.446Z,21.13
2018-08-09T15:39:33.521Z,20.93
2018-08-09T15:42:31.272Z,20.91
2018-08-09T15:45:30.007Z,20.79
2018-08-09T15:48:27.874Z,20.81
2018-08-09T15:51:25.736Z,20.83
2018-08-09T15:54:22.840Z,20.84
2018-08-09T15:57:21.150Z,20.72
2018-08-09T16:00:21.250Z,20.72
2018-08-09T16:03:19.377Z,20.63
2018-08-09T16:06:17.255Z,20.59
2018-08-09T16:09:15.277Z,20.60
2018-08-09T16:12:13.203Z,20.70
2018-08-09T16:15:11.409Z,20.75
2018-08-09T16:18:09.568Z,20.86
2018-08-09T16:21:06.854Z,21.00
2018-08-09T16:24:04.126Z,21.19
2018-08-09T16:27:01.282Z,21.25
2018-08-09T16:29:58.602Z,21.30
2018-08-09T16:32:56.526Z,21.35
2018-08-09T16:35:53.703Z,21.52
2018-08-09T16:38:51.762Z,21.52
2018-08-09T16:41:49.717Z,21.58
2018-08-09T16:44:47.955Z,21.54
2018-08-09T16:47:45.760Z,21.54
2018-08-09T16:50:43.203Z,21.64
2018-08-09T16:53:41.418Z,21.66
2018-08-09T16:56:39.308Z,21.79
2018-08-09T16:59:36.660Z,21.93
2018-08-09T17:02:34.731Z,21.95
2018-08-09T17:05:35.759Z,21.99
2018-08-09T17:08:33.725Z,22.05
2018-08-09T17:11:31.755Z,21.98
2018-08-09T17:14:29.772Z,21.90
2018-08-09T17:17:27.989Z,21.84
2018-08-09T17:20:36.400Z,21.83
2018-08-09T17:23:34.479Z,21.83
2018-08-09T17:26:32.636Z,21.78
2018-08-09T17:29:29.744Z,21.76
2018-08-09T17:32:27.706Z,21.77
2018-08-09T17:35:26.817Z,21.66
2018-08-09T17:38:24.912Z,21.62
2018-08-09T17:41:23.034Z,21.63
2018-08-09T17:44:20.033Z,21.59
2018-08-09T17:47:17.983Z,21.60
2018-08-09T17:50:15.911Z,21.66
2018-08-09T17:53:14.838Z,21.72
2018-08-09T17:56:12.712Z,21.79
2018-08-09T17:59:10.687Z,21.80
2018-08-09T18:02:08.723Z,21.80
2018-08-09T18:05:06.888Z,21.78
2018-08-09T18:08:04.696Z,21.78
2018-08-09T18:11:02.844Z,21.75
2018-08-09T18:14:00.886Z,21.76
2018-08-09T18:16:58.926Z,21.74
2018-08-09T18:19:56.419Z,21.74
2018-08-09T18:22:53.969Z,21.72
2018-08-09T18:25:51.903Z,21.76
2018-08-09T18:28:49.851Z,21.86
2018-08-09T18:31:47.848Z,21.88
2018-08-09T18:34:45.996Z,21.89
2018-08-09T18:37:43.421Z,21.94
2018-08-09T18:40:42.545Z,22.00
2018-08-09T18:43:39.801Z,22.05
2018-08-09T18:46:37.792Z,22.14
2018-08-09T18:49:35.459Z,22.13
2018-08-09T18:52:33.608Z,22.12
2018-08-09T18:55:32.207Z,22.06
2018-08-09T18:58:29.324Z,22.12
2018-08-09T19:01:26.353Z,22.16
2018-08-09T19:04:24.246Z,22.09
2018-08-09T19:07:22.353Z,22.19
2018-08-09T19:10:22.316Z,22.21
2018-08-09T19:13:20.347Z,22.20
2018-08-09T19:16:18.478Z,22.29
2018-08-09T19:19:15.905Z,22.29
2018-08-09T19:22:13.855Z,22.31
2018-08-09T19:25:11.027Z,22.27
2018-08-09T19:28:08.356Z,22.31
2018-08-09T19:31:05.529Z,22.27
2018-08-09T19:34:03.204Z,22.27
2018-08-09T19:37:01.132Z,22.28
2018-08-09T19:39:59.160Z,22.22
2018-08-09T19:42:57.011Z,22.14
2018-08-09T19:45:55.068Z,22.18
2018-08-09T19:48:53.045Z,22.20
2018-08-09T19:51:50.279Z,22.24
2018-08-09T19:54:47.452Z,22.23
2018-08-09T19:57:45.541Z,22.11
2018-08-09T20:00:44.060Z,22.12
2018-08-09T20:03:41.192Z,22.14
2018-08-09T20:06:38.791Z,22.15
2018-08-09T20:09:36.055Z,22.19
2018-08-09T20:12:33.262Z,22.17
2018-08-09T20:15:33.456Z,22.23
2018-08-09T20:18:30.671Z,22.19
2018-08-09T20:21:28.508Z,22.12
2018-08-09T20:24:26.011Z,22.01
2018-08-09T20:27:23.311Z,21.92
2018-08-09T20:30:22.413Z,21.85
2018-08-09T20:33:20.332Z,21.70
2018-08-09T20:36:18.367Z,21.59
2018-08-09T20:39:18.458Z,21.54
2018-08-09T20:42:16.463Z,21.32
2018-08-09T20:45:13.553Z,21.20
2018-08-09T20:48:10.808Z,21.04
2018-08-09T20:51:08.675Z,20.97
2018-08-09T20:54:06.617Z,20.90
2018-08-09T20:57:04.214Z,20.82
2018-08-09T21:00:02.274Z,20.72
2018-08-09T21:03:01.026Z,20.67
2018-08-09T21:05:57.933Z,20.55
2018-08-09T21:08:55.079Z,20.49
2018-08-09T21:11:52.437Z,20.43
2018-08-09T21:14:50.420Z,20.36
2018-08-09T21:17:47.549Z,20.30
2018-08-09T21:20:45.111Z,20.28
2018-08-09T21:23:43.122Z,20.24
2018-08-09T21:26:41.973Z,20.22
2018-08-09T21:29:40.124Z,20.20
2018-08-09T21:32:38.060Z,20.14
2018-08-09T21:35:36.023Z,20.08
2018-08-09T21:38:33.992Z,20.12
2018-08-09T21:41:31.025Z,20.08
2018-08-09T21:44:28.107Z,20.06
2018-08-09T21:47:26.371Z,20.00
2018-08-09T21:50:27.425Z,20.00
2018-08-09T21:53:25.304Z,20.03
2018-08-09T21:56:23.418Z,20.01
2018-08-09T21:59:20.597Z,19.95
2018-08-09T22:02:18.276Z,19.90
2018-08-09T22:05:22.383Z,19.85
2018-08-09T22:08:25.479Z,19.78
2018-08-09T22:11:29.902Z,19.77
2018-08-09T22:14:33.227Z,19.75
2018-08-09T22:17:37.318Z,19.73
2018-08-09T22:20:40.790Z,19.73
2018-08-09T22:23:38.519Z,19.67
2018-08-09T22:26:35.727Z,19.65
2018-08-09T22:29:33.133Z,19.63
2018-08-09T22:32:30.868Z,19.62
2018-08-09T22:35:28.755Z,19.59
2018-08-09T22:38:26.142Z,19.60
2018-08-09T22:41:24.019Z,19.62
2018-08-09T22:44:21.278Z,19.72
2018-08-09T22:47:19.146Z,19.76
2018-08-09T22:50:16.431Z,19.76
2018-08-09T22:53:14.686Z,19.70
2018-08-09T22:56:12.524Z,19.65
2018-08-09T22:59:10.523Z,19.60
2018-08-09T23:02:08.806Z,19.47
2018-08-09T23:05:06.472Z,19.41
2018-08-09T23:08:04.456Z,19.31
2018-08-09T23:11:01.723Z,19.24
2018-08-09T23:13:58.936Z,19.21
2018-08-09T23:16:56.099Z,19.31
2018-08-09T23:19:54.386Z,19.24
2018-08-09T23:22:51.671Z,19.32
2018-08-09T23:25:49.899Z,19.31
2018-08-09T23:28:47.291Z,19.30
2018-08-09T23:31:44.850Z,19.31
2018-08-09T23:34:42.764Z,19.34
2018-08-09T23:37:40.704Z,19.17
2018-08-09T23:40:38.727Z,19.17
2018-08-09T23:43:36.631Z,19.22
2018-08-09T23:46:33.860Z,19.16
2018-08-09T23:49:31.848Z,19.03
2018-08-09T23:52:28.916Z,18.83
2018-08-09T23:55:26.783Z,18.68
2018-08-09T23:58:25.003Z,18.59
